Time;durP1;ratioP1;P1;durP2;ratioP2;P2;SDS_P1;SDS_P2;PMS_P1;PMS_P2;Temp;Humidity;BMP_temperature;BMP_pressure;BME280_temperature;BME280_humidity;BME280_pressure;Samples;Min_cycle;Max_cycle;Signal;HPM_P1;HPM_P2
2022/12/18 00:01:05;;;;;;;86.82;53.70;;;-3.10;99.90;;;;;;4941561;28;88179;-30
2022/12/18 00:03:35;;;;;;;96.90;46.58;;;-3.10;99.90;;;;;;4941566;28;90647;-31
2022/12/18 00:06:01;;;;;;;84.28;43.80;;;-3.10;99.90;;;;;;4941891;28;89407;-31
2022/12/18 00:08:27;;;;;;;96.80;53.42;;;-3.00;99.90;;;;;;4941142;28;89336;-31
2022/12/18 00:10:53;;;;;;;91.30;53.65;;;-3.10;99.90;;;;;;4941347;28;89341;-33
2022/12/18 00:13:18;;;;;;;90.97;53.15;;;-3.10;99.90;;;;;;4941364;28;90175;-34
2022/12/18 00:15:44;;;;;;;91.47;51.38;;;-3.20;99.90;;;;;;4940857;28;89466;-33
2022/12/18 00:18:10;;;;;;;92.93;57.25;;;-3.20;99.90;;;;;;4940977;28;88719;-31
2022/12/18 00:20:39;;;;;;;91.85;53.92;;;-3.20;99.90;;;;;;4940305;28;88826;-31
2022/12/18 00:23:06;;;;;;;96.78;52.05;;;-3.20;99.90;;;;;;4940173;28;90605;-33
2022/12/18 00:25:36;;;;;;;94.53;54.22;;;-3.20;99.90;;;;;;4940814;28;89903;-32
2022/12/18 00:28:04;;;;;;;102.15;57.60;;;-3.20;99.90;;;;;;4940226;28;89638;-32
2022/12/18 00:30:30;;;;;;;;;;;-3.20;99.90;;;;;;4941730;28;88512;-30
2022/12/18 00:32:56;;;;;;;94.50;51.97;;;-3.30;99.90;;;;;;4943035;28;90352;-31
2022/12/18 00:35:22;;;;;;;96.38;56.10;;;-3.30;99.90;;;;;;4940499;28;90044;-31
2022/12/18 00:37:48;;;;;;;102.80;60.05;;;-3.30;99.90;;;;;;4941123;28;89727;-33
2022/12/18 00:40:13;;;;;;;98.20;55.08;;;-3.30;99.90;;;;;;4940426;28;88918;-32
2022/12/18 00:42:57;;;;;;;104.55;56.80;;;-3.30;99.90;;;;;;4933485;28;90257;-32
2022/12/18 00:45:28;;;;;;;97.10;54.53;;;-3.30;99.90;;;;;;4936228;28;90644;-31
2022/12/18 00:47:54;;;;;;;91.78;57.70;;;-3.30;99.90;;;;;;4940802;28;91306;-31
2022/12/18 00:50:21;;;;;;;86.25;53.03;;;-3.40;99.90;;;;;;4940468;28;88586;-31
2022/12/18 00:52:47;;;;;;;106.38;58.30;;;-3.40;99.90;;;;;;4940558;28;90438;-33
2022/12/18 00:55:13;;;;;;;87.28;51.92;;;-3.40;99.90;;;;;;4941139;28;91895;-31
2022/12/18 00:57:39;;;;;;;139.35;61.67;;;-3.30;99.90;;;;;;4939499;28;89796;-30
2022/12/18 01:00:07;;;;;;;123.22;63.10;;;-3.40;99.90;;;;;;4941124;28;88237;-33
2022/12/18 01:02:33;;;;;;;97.82;58.25;;;-3.40;99.90;;;;;;4940022;28;90046;-30
2022/12/18 01:04:58;;;;;;;92.72;56.55;;;-3.40;99.90;;;;;;4939475;28;89677;-31
2022/12/18 01:07:24;;;;;;;108.60;59.97;;;-3.40;99.90;;;;;;4940210;28;90169;-32
2022/12/18 01:09:49;;;;;;;90.45;57.90;;;-3.40;99.90;;;;;;4940367;28;89554;-30
2022/12/18 01:12:15;;;;;;;109.20;56.72;;;-3.50;99.90;;;;;;4940916;28;90712;-34
2022/12/18 01:14:40;;;;;;;87.07;56.47;;;-3.60;99.90;;;;;;4939954;28;89766;-31
2022/12/18 01:17:06;;;;;;;102.85;55.50;;;-3.60;99.90;;;;;;4940268;28;89656;-33
2022/12/18 01:19:32;;;;;;;91.50;54.03;;;-3.60;99.90;;;;;;4940113;28;88277;-30
2022/12/18 01:21:58;;;;;;;95.15;55.90;;;-3.70;99.90;;;;;;4940407;28;89848;-30
2022/12/18 01:24:24;;;;;;;94.45;56.33;;;-3.70;99.90;;;;;;4939948;28;89467;-32
2022/12/18 01:26:50;;;;;;;84.75;51.88;;;-3.80;99.90;;;;;;4940278;28;88912;-32
2022/12/18 01:29:15;;;;;;;86.38;51.58;;;-3.80;99.90;;;;;;4939607;28;90736;-30
2022/12/18 01:31:41;;;;;;;89.30;56.63;;;-3.90;99.90;;;;;;4940246;28;90033;-29
2022/12/18 01:34:06;;;;;;;84.88;50.15;;;-3.90;99.90;;;;;;4939607;28;89872;-30
2022/12/18 01:36:34;;;;;;;94.95;54.63;;;-4.00;99.90;;;;;;4939528;28;90404;-32
2022/12/18 01:39:03;;;;;;;91.05;54.08;;;-4.00;99.90;;;;;;4939625;28;88094;-31
2022/12/18 01:44:52;;;;;;;89.43;51.58;;;-4.00;99.90;;;;;;4926009;28;89946;-33
2022/12/18 01:47:23;;;;;;;69.10;44.22;;;-4.10;99.90;;;;;;4940394;28;89583;-32
2022/12/18 01:49:49;;;;;;;82.88;49.97;;;-4.10;99.90;;;;;;4939635;28;89023;-31
2022/12/18 01:52:16;;;;;;;86.85;52.78;;;-4.10;99.90;;;;;;4938935;28;90307;-32
2022/12/18 01:54:42;;;;;;;85.35;52.15;;;-4.20;99.90;;;;;;4939103;28;88389;-31
2022/12/18 01:57:08;;;;;;;93.38;51.47;;;-4.20;99.90;;;;;;4938482;28;89719;-34
2022/12/18 01:59:35;;;;;;;86.43;51.03;;;-4.20;99.90;;;;;;4938647;28;90023;-31
2022/12/18 02:02:02;;;;;;;89.15;46.85;;;-4.20;99.90;;;;;;4939300;28;90036;-30
2022/12/18 02:04:28;;;;;;;96.20;50.40;;;-4.20;99.90;;;;;;4939281;28;89573;-34
2022/12/18 02:07:11;;;;;;;77.82;49.28;;;-4.30;99.90;;;;;;4939475;28;89438;-31
2022/12/18 02:09:48;;;;;;;85.60;48.20;;;-4.30;99.90;;;;;;4939372;28;89636;-33
2022/12/18 02:12:21;;;;;;;94.40;50.08;;;-4.30;99.90;;;;;;4939870;28;89309;-31
2022/12/18 02:15:12;;;;;;;94.50;49.47;;;-4.40;99.90;;;;;;4938754;28;89468;-33
2022/12/18 02:18:10;;;;;;;82.65;50.03;;;-4.40;99.90;;;;;;4938898;28;90091;-30
2022/12/18 02:20:58;;;;;;;79.18;46.20;;;-4.40;99.90;;;;;;4911947;28;89366;-32
2022/12/18 02:23:40;;;;;;;83.47;44.42;;;-4.50;99.90;;;;;;4935493;28;90523;-30
2022/12/18 02:26:18;;;;;;;75.85;46.85;;;-4.50;99.90;;;;;;4935676;28;90633;-30
2022/12/18 02:29:07;;;;;;;78.55;46.03;;;-4.60;99.90;;;;;;4937793;28;90495;-30
2022/12/18 02:31:40;;;;;;;76.40;47.53;;;-4.60;99.90;;;;;;4939278;28;88849;-31
2022/12/18 02:34:08;;;;;;;82.53;46.60;;;-4.70;99.90;;;;;;4925991;28;90734;-34
2022/12/18 02:36:37;;;;;;;76.63;46.85;;;-4.70;99.90;;;;;;4933294;28;89665;-30
2022/12/18 02:39:04;;;;;;;84.10;43.97;;;-4.70;99.90;;;;;;4933101;28;90102;-33
2022/12/18 02:41:31;;;;;;;68.53;41.50;;;-4.80;99.90;;;;;;4933374;28;88112;-30
2022/12/18 02:44:06;;;;;;;79.82;45.55;;;-4.80;99.90;;;;;;4931618;28;89849;-32
2022/12/18 02:46:37;;;;;;;85.50;45.92;;;-4.80;99.90;;;;;;4939391;28;89856;-31
2022/12/18 02:49:30;;;;;;;74.13;44.30;;;-4.80;99.90;;;;;;4938633;28;89790;-32
2022/12/18 02:52:21;;;;;;;74.28;42.15;;;-4.90;99.90;;;;;;4939238;28;89078;-31
2022/12/18 02:55:06;;;;;;;69.80;40.60;;;-4.90;99.90;;;;;;4928517;28;89924;-31
2022/12/18 02:57:40;;;;;;;63.22;40.70;;;-4.90;99.90;;;;;;4939248;28;89675;-29
2022/12/18 03:00:15;;;;;;;74.88;42.90;;;-5.00;99.90;;;;;;4924676;28;89945;-33
2022/12/18 03:03:03;;;;;;;74.32;42.25;;;-5.00;99.90;;;;;;4939013;28;88240;-30
2022/12/18 03:05:41;;;;;;;70.53;41.80;;;-5.00;99.90;;;;;;4938790;28;90448;-29
2022/12/18 03:08:08;;;;;;;;;;;-5.10;99.90;;;;;;4938757;28;88778;-34
2022/12/18 03:10:40;;;;;;;65.15;36.28;;;-5.10;99.90;;;;;;4941019;28;88983;-32
2022/12/18 03:13:10;;;;;;;61.88;32.35;;;-5.20;99.90;;;;;;4938956;28;88957;-32
2022/12/18 03:15:41;;;;;;;70.72;39.17;;;-5.20;99.90;;;;;;4937962;28;91347;-32
2022/12/18 03:18:29;;;;;;;64.18;39.90;;;-5.20;99.90;;;;;;4938714;28;89362;-32
2022/12/18 03:20:57;;;;;;;57.60;32.97;;;-5.30;99.90;;;;;;4938552;28;90369;-32
2022/12/18 03:23:27;;;;;;;56.65;35.10;;;-5.30;99.90;;;;;;4937405;28;89780;-32
2022/12/18 03:25:57;;;;;;;58.78;35.42;;;-5.30;99.90;;;;;;4938472;28;90288;-32
2022/12/18 03:28:23;;;;;;;66.07;36.55;;;-5.30;99.90;;;;;;4937487;28;89856;-33
2022/12/18 03:30:55;;;;;;;65.18;34.45;;;-5.40;99.90;;;;;;4938921;28;89399;-31
2022/12/18 03:33:28;;;;;;;50.35;32.92;;;-5.40;99.90;;;;;;4927080;28;87773;-32
2022/12/18 03:35:54;;;;;;;59.10;35.55;;;-5.40;99.90;;;;;;4937665;28;90235;-32
2022/12/18 03:38:20;;;;;;;47.67;31.95;;;-5.40;99.90;;;;;;4937827;28;89963;-32
2022/12/18 03:41:29;;;;;;;53.08;33.90;;;-5.50;99.90;;;;;;4937845;28;89239;-31
2022/12/18 03:44:01;;;;;;;54.08;32.78;;;-5.40;99.90;;;;;;4936894;28;90487;-31
2022/12/18 03:46:54;;;;;;;58.75;33.22;;;-5.50;99.90;;;;;;4938093;28;90354;-31
2022/12/18 03:49:28;;;;;;;54.47;30.85;;;-5.50;99.90;;;;;;4938136;28;89210;-30
2022/12/18 03:52:04;;;;;;;45.53;30.33;;;-5.50;99.90;;;;;;4938541;28;90175;-29
2022/12/18 03:54:31;;;;;;;45.17;29.33;;;-5.50;99.90;;;;;;4941204;28;89863;-29
2022/12/18 03:57:06;;;;;;;45.30;30.85;;;-5.50;99.90;;;;;;4941735;28;90349;-31
2022/12/18 03:59:34;;;;;;;53.42;30.05;;;-5.50;99.90;;;;;;4941126;28;90162;-30
2022/12/18 04:02:02;;;;;;;43.22;30.15;;;-5.60;99.90;;;;;;4941188;28;89673;-30
2022/12/18 04:04:30;;;;;;;47.80;28.33;;;-5.60;99.90;;;;;;4940755;28;89130;-31
2022/12/18 04:06:58;;;;;;;53.15;27.45;;;-5.70;99.90;;;;;;4941479;28;90240;-30
2022/12/18 04:09:23;;;;;;;49.80;32.63;;;-5.70;99.90;;;;;;4940658;28;90712;-34
2022/12/18 04:11:51;;;;;;;49.35;31.67;;;-5.80;99.90;;;;;;4941224;28;91038;-30
2022/12/18 04:14:16;;;;;;;50.65;29.45;;;-5.80;99.90;;;;;;4941654;28;89690;-34
2022/12/18 04:16:42;;;;;;;50.92;33.55;;;-5.90;99.90;;;;;;4940782;28;90327;-31
2022/12/18 04:19:08;;;;;;;45.47;30.73;;;-5.90;99.90;;;;;;4940861;28;89941;-33
2022/12/18 04:21:33;;;;;;;46.10;27.83;;;-5.90;99.90;;;;;;4941473;28;90299;-31
2022/12/18 04:23:59;;;;;;;43.60;27.55;;;-5.90;99.90;;;;;;4940564;28;89320;-31
2022/12/18 04:26:24;;;;;;;48.78;29.63;;;-6.00;99.90;;;;;;4940976;28;90253;-31
2022/12/18 04:28:50;;;;;;;41.53;28.00;;;-5.90;99.90;;;;;;4940686;28;89624;-30
2022/12/18 04:31:15;;;;;;;46.33;29.55;;;-6.00;99.90;;;;;;4941601;28;89396;-34
2022/12/18 04:33:41;;;;;;;47.20;30.25;;;-6.00;99.90;;;;;;4926429;28;89521;-31
2022/12/18 04:36:07;;;;;;;50.92;29.40;;;-6.00;99.90;;;;;;4940867;28;90457;-34
2022/12/18 04:38:33;;;;;;;47.63;28.40;;;-6.00;99.90;;;;;;4940608;28;90263;-30
2022/12/18 04:40:58;;;;;;;42.97;29.85;;;-6.00;99.90;;;;;;4940525;28;89403;-30
2022/12/18 04:43:24;;;;;;;45.28;28.50;;;-6.00;99.90;;;;;;4940691;28;89128;-32
2022/12/18 04:45:49;;;;;;;54.15;31.73;;;-5.90;99.90;;;;;;4941048;28;89940;-33
2022/12/18 04:48:16;;;;;;;47.35;28.70;;;-6.00;99.90;;;;;;4940420;28;90162;-32
2022/12/18 04:50:41;;;;;;;50.30;27.05;;;-6.00;99.90;;;;;;4940978;28;89674;-32
2022/12/18 04:53:07;;;;;;;46.10;27.23;;;-6.00;99.90;;;;;;4940348;28;88215;-31
2022/12/18 04:55:32;;;;;;;45.67;28.15;;;-6.00;99.90;;;;;;4940319;28;90647;-32
2022/12/18 04:57:58;;;;;;;44.65;27.95;;;-6.00;99.90;;;;;;4939992;28;90772;-31
2022/12/18 05:00:24;;;;;;;42.00;27.00;;;-6.10;99.90;;;;;;4939910;28;90631;-33
2022/12/18 05:02:49;;;;;;;46.20;28.50;;;-6.10;99.90;;;;;;4940702;28;88624;-30
2022/12/18 05:05:15;;;;;;;52.00;31.20;;;-6.20;99.90;;;;;;4938769;28;90045;-33
2022/12/18 05:07:41;;;;;;;39.88;29.17;;;-6.20;99.90;;;;;;4940573;28;89707;-29
2022/12/18 05:10:08;;;;;;;42.80;27.33;;;-6.30;99.90;;;;;;4940483;28;89324;-30
2022/12/18 05:12:33;;;;;;;40.75;27.15;;;-6.30;99.90;;;;;;4940593;28;88986;-32
2022/12/18 05:14:59;;;;;;;37.60;25.85;;;-6.40;99.90;;;;;;4940272;28;90403;-33
2022/12/18 05:17:24;;;;;;;47.97;28.70;;;-6.40;99.90;;;;;;4939959;28;89704;-30
2022/12/18 05:19:50;;;;;;;48.67;28.13;;;-6.40;99.90;;;;;;4939827;28;89803;-30
2022/12/18 05:22:15;;;;;;;39.97;27.00;;;-6.40;99.90;;;;;;4939646;28;88519;-30
2022/12/18 05:24:41;;;;;;;42.92;26.88;;;-6.40;99.90;;;;;;4940525;28;90247;-31
2022/12/18 05:27:07;;;;;;;50.38;27.98;;;-6.40;99.90;;;;;;4939629;28;89387;-33
2022/12/18 05:29:32;;;;;;;46.22;27.02;;;-6.40;99.90;;;;;;4940086;28;89609;-31
2022/12/18 05:31:58;;;;;;;42.58;27.00;;;-6.30;99.90;;;;;;4939998;28;89383;-30
2022/12/18 05:34:23;;;;;;;36.63;24.60;;;-6.30;99.90;;;;;;4920987;28;89707;-35
2022/12/18 05:36:49;;;;;;;38.53;27.08;;;-6.40;99.90;;;;;;4932600;28;89625;-30
2022/12/18 05:39:15;;;;;;;46.78;25.92;;;-6.30;99.90;;;;;;4939507;28;89627;-32
2022/12/18 05:41:40;;;;;;;41.28;26.42;;;-6.40;99.90;;;;;;4940206;28;90150;-30
2022/12/18 05:44:06;;;;;;;37.78;24.10;;;-6.40;99.90;;;;;;4938901;28;90521;-32
2022/12/18 05:46:32;;;;;;;47.75;26.58;;;-6.40;99.90;;;;;;4937710;28;91115;-30
2022/12/18 05:49:03;;;;;;;44.10;27.65;;;-6.40;99.90;;;;;;4939831;28;90656;-33
2022/12/18 05:51:29;;;;;;;42.30;27.05;;;-6.40;99.90;;;;;;4939842;28;89559;-31
2022/12/18 05:53:54;;;;;;;39.50;27.80;;;-6.40;99.90;;;;;;4939992;28;89596;-31
2022/12/18 05:56:22;;;;;;;30.20;22.50;;;-6.50;99.90;;;;;;4939831;28;89719;-32
2022/12/18 05:58:52;;;;;;;37.93;24.07;;;-6.50;99.90;;;;;;4939319;28;89176;-31
2022/12/18 06:01:21;;;;;;;35.28;25.80;;;-6.50;99.90;;;;;;4939965;28;89457;-30
2022/12/18 06:03:46;;;;;;;42.08;26.60;;;-6.50;99.90;;;;;;4939464;28;91710;-30
2022/12/18 06:06:17;;;;;;;40.03;22.27;;;-6.50;99.90;;;;;;4939342;28;89624;-31
2022/12/18 06:08:43;;;;;;;34.83;23.80;;;-6.60;99.90;;;;;;4938527;28;89592;-32
2022/12/18 06:11:09;;;;;;;40.88;24.80;;;-6.60;99.90;;;;;;4939612;28;89739;-31
2022/12/18 06:13:34;;;;;;;38.83;23.15;;;-6.60;99.90;;;;;;4939239;28;90218;-31
2022/12/18 06:16:03;;;;;;;55.03;25.83;;;-6.60;99.90;;;;;;4938812;28;89290;-30
2022/12/18 06:18:29;;;;;;;34.72;23.42;;;-6.60;99.90;;;;;;4939137;28;89239;-34
2022/12/18 06:20:56;;;;;;;37.92;24.77;;;-6.70;99.90;;;;;;4939527;28;89416;-32
2022/12/18 06:23:22;;;;;;;39.53;24.73;;;-6.70;99.90;;;;;;4939162;28;90185;-30
2022/12/18 06:25:47;;;;;;;37.67;24.30;;;-6.70;99.90;;;;;;4939251;28;89689;-31
2022/12/18 06:28:13;;;;;;;40.25;22.58;;;-6.70;99.90;;;;;;4938260;28;90496;-30
2022/12/18 06:30:39;;;;;;;42.20;24.83;;;-6.70;99.90;;;;;;4938692;28;88587;-33
2022/12/18 06:33:04;;;;;;;36.38;25.10;;;-6.80;99.90;;;;;;4939403;28;90538;-29
2022/12/18 06:35:32;;;;;;;36.35;23.38;;;-6.90;99.90;;;;;;4937855;28;90064;-29
2022/12/18 06:37:57;;;;;;;43.97;25.33;;;-7.00;99.90;;;;;;4939704;28;89048;-31
2022/12/18 06:40:23;;;;;;;34.47;23.70;;;-7.00;99.90;;;;;;4938574;28;89891;-31
2022/12/18 06:42:48;;;;;;;41.90;25.05;;;-7.00;99.90;;;;;;4938845;28;90531;-30
2022/12/18 06:45:14;;;;;;;42.45;26.05;;;-7.00;99.90;;;;;;4939352;28;90306;-31
2022/12/18 06:47:40;;;;;;;43.35;27.05;;;-7.10;99.90;;;;;;4938640;28;90338;-30
2022/12/18 06:50:06;;;;;;;40.13;24.42;;;-7.00;99.90;;;;;;4939282;28;90122;-31
2022/12/18 06:52:32;;;;;;;43.10;24.67;;;-7.00;99.90;;;;;;4938743;28;89890;-34
2022/12/18 06:54:58;;;;;;;36.75;24.38;;;-7.00;99.90;;;;;;4934452;28;89364;-32
2022/12/18 06:57:23;;;;;;;38.47;26.15;;;-7.00;99.90;;;;;;4932138;28;90249;-33
2022/12/18 06:59:49;;;;;;;45.60;26.48;;;-7.00;99.90;;;;;;4938225;28;88356;-29
2022/12/18 07:02:14;;;;;;;37.65;24.92;;;-7.00;99.90;;;;;;4939496;28;90261;-31
2022/12/18 07:04:40;;;;;;;45.13;26.63;;;-7.00;99.90;;;;;;4938088;28;88898;-31
2022/12/18 07:07:06;;;;;;;40.05;25.25;;;-7.00;99.90;;;;;;4939349;28;90805;-30
2022/12/18 07:09:31;;;;;;;42.92;27.13;;;-7.00;99.90;;;;;;4937988;28;89983;-33
2022/12/18 07:11:57;;;;;;;43.95;27.27;;;-7.00;99.90;;;;;;4938754;28;90100;-29
2022/12/18 07:14:22;;;;;;;36.28;25.00;;;-7.00;99.90;;;;;;4939094;28;89767;-30
2022/12/18 07:16:48;;;;;;;41.83;25.40;;;-7.00;99.90;;;;;;4937168;28;91034;-30
2022/12/18 07:19:14;;;;;;;40.67;24.98;;;-7.00;99.90;;;;;;4939950;28;90220;-30
2022/12/18 07:21:39;;;;;;;37.90;23.27;;;-6.90;99.90;;;;;;4938028;28;89915;-31
2022/12/18 07:24:05;;;;;;;38.17;22.92;;;-6.90;99.90;;;;;;4929616;28;90746;-29
2022/12/18 07:26:31;;;;;;;38.17;26.10;;;-6.80;99.90;;;;;;4933610;28;90463;-33
2022/12/18 07:28:57;;;;;;;40.63;24.48;;;-6.90;99.90;;;;;;4940570;28;89146;-32
2022/12/18 07:31:24;;;;;;;35.00;23.63;;;-6.90;99.90;;;;;;4942486;28;90298;-33
2022/12/18 07:33:50;;;;;;;35.58;23.23;;;-6.90;99.90;;;;;;4926118;28;89557;-33
2022/12/18 07:36:16;;;;;;;38.95;24.92;;;-6.90;99.90;;;;;;4941188;28;90089;-33
2022/12/18 07:38:42;;;;;;;34.22;21.58;;;-6.90;99.90;;;;;;4940735;28;89443;-32
2022/12/18 07:41:13;;;;;;;33.88;22.92;;;-6.80;99.90;;;;;;4941880;28;90136;-33
2022/12/18 07:43:40;;;;;;;36.28;21.88;;;-6.80;99.90;;;;;;4942500;28;89149;-32
2022/12/18 07:46:07;;;;;;;34.05;19.75;;;-6.80;99.90;;;;;;4941157;28;90633;-31
2022/12/18 07:48:32;;;;;;;38.05;22.52;;;-6.80;99.90;;;;;;4941221;28;88705;-31
2022/12/18 07:51:04;;;;;;;39.47;22.02;;;-6.80;99.90;;;;;;4941601;28;91560;-32
2022/12/18 07:53:30;;;;;;;32.25;20.23;;;-6.70;99.90;;;;;;4942050;28;89541;-30
2022/12/18 07:56:01;;;;;;;36.30;19.60;;;-6.70;99.90;;;;;;4932214;28;89645;-33
2022/12/18 07:58:26;;;;;;;32.70;20.67;;;-6.60;99.90;;;;;;4934915;28;88959;-29
2022/12/18 08:00:52;;;;;;;29.73;20.52;;;-6.60;99.90;;;;;;4958206;28;90570;-34
2022/12/18 08:03:18;;;;;;;36.90;21.73;;;-6.50;99.90;;;;;;4955921;28;90073;-30
2022/12/18 08:05:44;;;;;;;31.80;19.35;;;-6.60;99.90;;;;;;4958365;28;89843;-30
2022/12/18 08:08:10;;;;;;;41.35;22.27;;;-6.50;99.90;;;;;;4956520;28;88607;-29
2022/12/18 08:10:37;;;;;;;26.88;19.92;;;-6.50;99.90;;;;;;4957662;28;91427;-32
2022/12/18 08:13:03;;;;;;;36.13;21.42;;;-6.50;99.90;;;;;;4949786;28;91004;-31
2022/12/18 08:15:29;;;;;;;28.40;19.23;;;-6.40;99.90;;;;;;4922309;28;90636;-31
2022/12/18 08:17:56;;;;;;;27.80;19.27;;;-6.40;99.90;;;;;;4948380;28;89435;-33
2022/12/18 08:20:22;;;;;;;29.08;19.08;;;-6.40;99.90;;;;;;4930645;28;90557;-32
2022/12/18 08:22:48;;;;;;;33.15;20.98;;;-6.40;99.90;;;;;;4942971;28;91579;-30
2022/12/18 08:25:14;;;;;;;29.77;19.90;;;-6.30;99.90;;;;;;4921199;28;89261;-31
2022/12/18 08:27:39;;;;;;;35.10;21.33;;;-6.30;99.90;;;;;;4922467;28;88695;-31
2022/12/18 08:30:05;;;;;;;36.53;21.88;;;-6.20;99.90;;;;;;4922664;28;90405;-32
2022/12/18 08:32:32;;;;;;;32.63;22.50;;;-6.10;99.90;;;;;;4925723;28;88491;-31
2022/12/18 08:34:58;;;;;;;27.98;17.75;;;-6.10;99.90;;;;;;4947154;28;89216;-29
2022/12/18 08:37:24;;;;;;;28.42;19.33;;;-6.00;99.90;;;;;;4952825;28;90083;-32
2022/12/18 08:39:49;;;;;;;27.10;19.08;;;-6.00;99.90;;;;;;4954442;28;90371;-33
2022/12/18 08:44:59;;;;;;;31.73;19.63;;;-5.90;99.90;;;;;;4954858;28;88995;-33
2022/12/18 08:47:25;;;;;;;31.55;19.95;;;-5.80;99.90;;;;;;4954933;28;88394;-31
2022/12/18 08:49:51;;;;;;;30.58;19.35;;;-5.70;99.90;;;;;;4952793;28;89930;-31
2022/12/18 08:52:17;;;;;;;29.60;19.48;;;-5.70;99.90;;;;;;4956379;28;89693;-32
2022/12/18 08:54:42;;;;;;;25.38;17.08;;;-5.60;99.90;;;;;;4951591;28;91415;-30
2022/12/18 08:57:08;;;;;;;25.33;16.48;;;-5.60;99.90;;;;;;4956252;28;88451;-30
2022/12/18 08:59:34;;;;;;;24.70;17.92;;;-5.50;99.90;;;;;;4952524;28;92134;-30
2022/12/18 09:01:59;;;;;;;23.75;17.38;;;-5.40;99.90;;;;;;4952355;28;90819;-31
2022/12/18 09:04:25;;;;;;;24.30;15.45;;;-5.40;99.90;;;;;;4954959;28;89851;-32
2022/12/18 09:06:50;;;;;;;26.88;18.92;;;-5.30;99.90;;;;;;4953103;28;89012;-33
2022/12/18 09:09:16;;;;;;;22.80;15.73;;;-5.30;99.90;;;;;;4955840;28;90271;-31
2022/12/18 09:11:42;;;;;;;26.10;17.25;;;-5.20;99.90;;;;;;4951448;28;89430;-30
2022/12/18 09:14:09;;;;;;;21.30;15.20;;;-5.10;99.90;;;;;;4955963;28;88851;-32
2022/12/18 09:16:35;;;;;;;26.63;17.65;;;-5.00;99.90;;;;;;4952961;28;89506;-32
2022/12/18 09:19:03;;;;;;;25.85;16.92;;;-4.90;99.90;;;;;;4954538;28;90762;-28
2022/12/18 09:21:41;;;;;;;21.17;14.85;;;-4.80;99.90;;;;;;4953436;28;90178;-29
2022/12/18 09:24:12;;;;;;;25.08;18.33;;;-4.70;99.90;;;;;;4942494;28;89981;-31
2022/12/18 09:26:38;;;;;;;22.35;16.67;;;-4.60;99.90;;;;;;4938596;28;88794;-29
2022/12/18 09:29:04;;;;;;;25.25;16.58;;;-4.50;99.90;;;;;;4989281;22;90316;-33
2022/12/18 09:31:29;;;;;;;18.95;16.23;;;-4.40;99.90;;;;;;4958990;28;90276;-31
2022/12/18 09:33:56;;;;;;;18.98;14.77;;;-4.30;99.90;;;;;;4953416;28;89606;-31
2022/12/18 09:36:22;;;;;;;22.08;16.83;;;-4.30;99.90;;;;;;4950446;28;90060;-30
2022/12/18 09:38:48;;;;;;;18.77;15.70;;;-4.20;99.90;;;;;;4963552;28;90118;-32
2022/12/18 09:41:34;;;;;;;17.80;13.55;;;-4.10;99.90;;;;;;4962992;28;89836;-31
2022/12/18 09:44:15;;;;;;;20.67;14.63;;;-4.00;99.90;;;;;;4967618;28;89613;-32
2022/12/18 09:46:45;;;;;;;18.08;14.23;;;-3.90;99.90;;;;;;4958762;28;89233;-30
2022/12/18 09:49:17;;;;;;;19.42;12.50;;;-3.80;99.90;;;;;;4962506;28;90768;-29
2022/12/18 09:51:49;;;;;;;16.33;12.65;;;-3.80;99.90;;;;;;4961134;28;90574;-32
2022/12/18 09:54:20;;;;;;;20.70;14.40;;;-3.70;99.90;;;;;;4966250;28;92507;-32
2022/12/18 09:56:46;;;;;;;21.70;15.07;;;-3.70;99.90;;;;;;4966675;28;89452;-29
2022/12/18 09:59:29;;;;;;;18.90;15.52;;;-3.60;99.90;;;;;;4977572;28;90252;-33
2022/12/18 10:01:55;;;;;;;21.27;17.10;;;-3.50;99.90;;;;;;4973242;28;89216;-31
2022/12/18 10:04:21;;;;;;;25.02;16.33;;;-3.40;99.90;;;;;;4974279;28;89680;-31
2022/12/18 10:07:07;;;;;;;21.45;13.75;;;-3.40;99.90;;;;;;4969471;28;88705;-32
2022/12/18 10:09:40;;;;;;;20.77;14.15;;;-3.30;99.90;;;;;;4975404;28;90566;-30
2022/12/18 10:12:29;;;;;;;15.93;13.63;;;-3.20;99.90;;;;;;4971971;28;89983;-30
2022/12/18 10:15:10;;;;;;;19.88;14.02;;;-3.20;99.90;;;;;;4971094;28;89549;-30
2022/12/18 10:17:47;;;;;;;19.88;13.13;;;-3.00;99.90;;;;;;4969198;28;88717;-30
2022/12/18 10:20:40;;;;;;;19.60;13.52;;;-3.00;99.90;;;;;;4970196;28;90040;-29
2022/12/18 10:23:20;;;;;;;19.23;12.55;;;-2.90;99.90;;;;;;4973312;28;89777;-29
2022/12/18 10:26:06;;;;;;;19.58;14.18;;;-2.80;99.90;;;;;;4967401;28;89760;-31
2022/12/18 10:28:36;;;;;;;18.00;13.85;;;-2.80;99.90;;;;;;4959963;28;89299;-33
2022/12/18 10:31:02;;;;;;;16.08;13.45;;;-2.80;99.90;;;;;;4975513;28;90374;-29
2022/12/18 10:33:31;;;;;;;20.27;14.15;;;-2.80;99.90;;;;;;4951407;28;88796;-33
2022/12/18 10:35:57;;;;;;;17.92;13.15;;;-2.80;99.90;;;;;;4962750;28;89868;-32
2022/12/18 10:38:28;;;;;;;14.80;13.15;;;-2.80;99.90;;;;;;4963964;28;88546;-31
2022/12/18 10:41:00;;;;;;;19.13;13.82;;;-2.80;99.90;;;;;;4965003;28;90124;-31
2022/12/18 10:43:37;;;;;;;20.27;13.63;;;-2.80;99.90;;;;;;4962957;28;90872;-31
2022/12/18 10:46:09;;;;;;;17.75;15.63;;;-2.80;99.90;;;;;;4963982;28;90538;-32
2022/12/18 10:48:47;;;;;;;19.23;13.85;;;-2.80;99.90;;;;;;4964209;28;89287;-32
2022/12/18 10:51:38;;;;;;;16.25;12.55;;;-2.80;99.90;;;;;;4962469;28;89286;-34
2022/12/18 10:54:12;;;;;;;12.18;9.88;;;-2.70;99.90;;;;;;4962336;28;89145;-33
2022/12/18 10:56:38;;;;;;;15.50;12.80;;;-2.60;99.90;;;;;;4962624;28;89157;-31
2022/12/18 10:59:06;;;;;;;16.30;11.60;;;-2.60;99.90;;;;;;4962342;28;88646;-32
2022/12/18 11:01:57;;;;;;;13.80;11.80;;;-2.60;99.90;;;;;;4956951;28;89919;-30
2022/12/18 11:04:28;;;;;;;13.48;11.63;;;-2.50;99.90;;;;;;4970284;28;89423;-32
2022/12/18 11:06:57;;;;;;;17.50;14.45;;;-2.50;99.90;;;;;;4964998;28;90953;-34
2022/12/18 11:09:26;;;;;;;25.83;23.02;;;-2.50;99.90;;;;;;4962773;28;89189;-32
2022/12/18 11:11:53;;;;;;;;;;;-2.40;99.90;;;;;;4961973;28;89956;-31
2022/12/18 11:14:41;;;;;;;37.13;31.67;;;-2.40;99.90;;;;;;4962010;28;89992;-34
2022/12/18 11:17:19;;;;;;;44.50;33.38;;;-2.40;99.90;;;;;;4959404;28;90267;-30
2022/12/18 11:19:51;;;;;;;42.30;37.53;;;-2.20;99.90;;;;;;4959438;28;89517;-33
2022/12/18 11:22:20;;;;;;;39.70;35.67;;;-2.20;99.90;;;;;;4971276;28;92130;-30
2022/12/18 11:24:55;;;;;;;35.05;28.10;;;-2.10;99.90;;;;;;4969676;28;89365;-31
2022/12/18 11:27:21;;;;;;;31.38;27.65;;;-2.10;99.90;;;;;;4973301;28;89899;-30
2022/12/18 11:29:50;;;;;;;29.85;24.48;;;-2.10;99.90;;;;;;4973891;28;88743;-32
2022/12/18 11:32:38;;;;;;;25.35;20.17;;;-2.10;99.90;;;;;;4967786;28;89864;-31
2022/12/18 11:35:32;;;;;;;20.80;18.42;;;-2.10;99.90;;;;;;4963347;28;88824;-30
2022/12/18 11:38:04;;;;;;;23.92;19.50;;;-2.00;99.90;;;;;;4971130;28;90081;-30
2022/12/18 11:40:36;;;;;;;20.70;16.90;;;-2.00;99.90;;;;;;4964240;28;88543;-33
2022/12/18 11:43:08;;;;;;;17.38;13.38;;;-1.90;99.90;;;;;;4975055;28;89229;-31
2022/12/18 11:45:40;;;;;;;17.42;13.20;;;-1.80;99.90;;;;;;4977515;28;89675;-31
2022/12/18 11:48:26;;;;;;;17.38;13.23;;;-1.70;99.90;;;;;;4957205;28;89491;-34
2022/12/18 11:50:55;;;;;;;18.58;12.07;;;-1.70;99.90;;;;;;4959931;28;89094;-30
2022/12/18 11:53:21;;;;;;;12.95;10.52;;;-1.60;99.90;;;;;;4962453;28;90662;-29
2022/12/18 11:55:54;;;;;;;15.88;13.10;;;-1.60;99.90;;;;;;4961522;28;89532;-32
2022/12/18 11:58:36;;;;;;;15.55;10.85;;;-1.60;99.90;;;;;;4963797;28;89428;-31
2022/12/18 12:01:14;;;;;;;12.82;11.23;;;-1.50;99.90;;;;;;4973565;28;89384;-33
2022/12/18 12:03:53;;;;;;;13.80;12.10;;;-1.50;99.90;;;;;;4975101;28;91304;-32
2022/12/18 12:06:34;;;;;;;11.45;9.68;;;-1.60;99.90;;;;;;4963783;28;91669;-34
2022/12/18 12:09:10;;;;;;;12.07;9.05;;;-1.50;99.90;;;;;;4971034;28;89366;-31
2022/12/18 12:12:12;;;;;;;18.00;12.07;;;-1.40;99.90;;;;;;4969324;28;88674;-31
2022/12/18 12:15:10;;;;;;;16.02;11.95;;;-1.40;99.90;;;;;;4969305;28;89224;-31
2022/12/18 12:17:42;;;;;;;14.98;12.95;;;-1.40;99.90;;;;;;4971260;28;89684;-30
2022/12/18 12:20:21;;;;;;;15.10;12.45;;;-1.40;99.90;;;;;;4968296;28;89614;-29
2022/12/18 12:22:54;;;;;;;;;;;-1.30;99.90;;;;;;4966971;28;89199;-32
2022/12/18 12:25:26;;;;;;;21.48;11.60;;;-1.30;99.90;;;;;;4969047;28;90654;-30
2022/12/18 12:28:19;;;;;;;13.80;12.38;;;-1.30;99.90;;;;;;4971216;28;90046;-30
2022/12/18 12:30:59;;;;;;;19.85;16.08;;;-1.30;99.90;;;;;;4967806;28;90290;-30
2022/12/18 12:33:30;;;;;;;15.10;13.57;;;-1.20;99.90;;;;;;4951189;28;89266;-30
2022/12/18 12:36:14;;;;;;;16.25;13.77;;;-1.20;99.90;;;;;;4957037;28;89075;-32
2022/12/18 12:38:53;;;;;;;16.08;12.80;;;-1.20;99.90;;;;;;4958056;28;89957;-31
2022/12/18 12:44:15;;;;;;;15.48;11.80;;;-1.00;99.90;;;;;;4974243;28;90857;-31
2022/12/18 12:46:42;;;;;;;13.18;10.38;;;-0.90;99.90;;;;;;4972687;28;90162;-35
2022/12/18 12:49:31;;;;;;;12.10;9.63;;;-0.90;99.90;;;;;;4978199;28;90171;-30
2022/12/18 12:52:10;;;;;;;13.95;12.30;;;-0.80;99.90;;;;;;4975271;28;89706;-31